الصفحة الرئيسية
METAR-TAF:

METAR-TAF

مطار :

ناساو, البهاما

دائرة عرض: 25-03N, خط طول: 077-28W, ارتفاع: 3 متر

مراقبة الطقس الحالي

تاريخ ووقت الإصدار 22 دقيقة قبل الساعة 09:00UTC
ريح 7 عقدة من الشرق
درجة الحرارة 27°درجة مئوية
الرطوبة 79%
ضغط 1018 hPa
الرؤية 10 كم أو أكثر
غيوم قليلة على ارتفاع 2000 قدم

METAR: MYNN 170900Z 10007KT 9999 FEW020 27/23 A3007

زمن: 05:22 (09:22 UTC)

توقعات

تاريخ ووقت الإصدار 4ساعات و 52 دقيقة قبل الساعة 04:30UTC
التوقعات صالحة من17 الساعة 06 UTC إلى 18 الساعة 06 UTC
ريح 10 عقدة من الجنوب الشرقي
الرؤية: 8000 متر
غيوم متفرقة على ارتفاع 1500 قدم, مزنة ركامية.
غيوم مفككة على ارتفاع 2000 قدم
زخات من المطر
من 17 الساعة 1000 UTC
ريح 12 عقدة من الشرق/الجنوب الشرقي
الرؤية 10 كم أو أكثر
غيوم متفرقة على ارتفاع 2000 قدم
أصبح
من 18 الساعة 02 UTC إلى 18 الساعة 04 UTC
الرؤية: 5000 متر
غيوم مفككة على ارتفاع 1800 قدم
زخات من المطر

TAF: MYNN 170430Z 1706/1806 13010KT 8000 SHRA SCT015CB BKN020 FM171000Z 12012KT 9999 SCT020 BECMG 1802/1804 5000 SHRA BKN018

أرصاد الطقس والتوقعات من أكثر من 4000 مطار (تقارير الطقس للمطار METAR والتنبؤ بالطقس بالمطارTAF).

المحطات المتاحة هي النقط الصفراء والحمراء على الخريطة.

حرك المؤشر فوق النقطة لمعرفة اسم المحطة.

ثم انقر لمعرفة أرصاد وتوقعات الطقس.

لتغيير الخارطة: اضغط على الأزرار الخضراء مع رمز الصليب الأسود للتكبير. على الزر الأخضر مع شرطة للتصغير، أو على الأسهم الخضراء للخرائط المجاورة.


METAR-TAF: